sensor_id;sensor_type;location;lat;lon;timestamp;temperature;humidity
55329;DHT22;41205;44.264;19.884;2023-08-21T00:01:21;589.50;2432.00
55329;DHT22;41205;44.264;19.884;2023-08-21T00:03:46;589.40;2432.00
55329;DHT22;41205;44.264;19.884;2023-08-21T00:06:12;589.30;2432.00
55329;DHT22;41205;44.264;19.884;2023-08-21T00:08:38;589.30;2432.00
55329;DHT22;41205;44.264;19.884;2023-08-21T00:11:04;589.30;2432.00
55329;DHT22;41205;44.264;19.884;2023-08-21T00:13:29;589.30;2432.00
55329;DHT22;41205;44.264;19.884;2023-08-21T00:15:55;589.40;2432.00
55329;DHT22;41205;44.264;19.884;2023-08-21T00:18:21;589.50;2432.00
55329;DHT22;41205;44.264;19.884;2023-08-21T00:20:47;589.60;2432.00
55329;DHT22;41205;44.264;19.884;2023-08-21T00:23:13;589.60;2432.00
55329;DHT22;41205;44.264;19.884;2023-08-21T00:25:38;589.60;2432.00
55329;DHT22;41205;44.264;19.884;2023-08-21T00:28:04;589.50;2432.00
55329;DHT22;41205;44.264;19.884;2023-08-21T00:30:30;589.40;2432.00
55329;DHT22;41205;44.264;19.884;2023-08-21T00:32:56;589.40;2432.00
55329;DHT22;41205;44.264;19.884;2023-08-21T00:35:22;589.50;2432.00
55329;DHT22;41205;44.264;19.884;2023-08-21T00:37:47;589.50;2432.00
55329;DHT22;41205;44.264;19.884;2023-08-21T00:40:13;589.60;2432.00
55329;DHT22;41205;44.264;19.884;2023-08-21T00:42:39;589.50;2432.00
55329;DHT22;41205;44.264;19.884;2023-08-21T00:45:05;589.50;2432.00
55329;DHT22;41205;44.264;19.884;2023-08-21T00:47:34;589.50;2432.00
55329;DHT22;41205;44.264;19.884;2023-08-21T00:50:01;589.50;2432.00
55329;DHT22;41205;44.264;19.884;2023-08-21T00:52:27;589.60;2432.00
55329;DHT22;41205;44.264;19.884;2023-08-21T00:54:54;589.50;2432.00
55329;DHT22;41205;44.264;19.884;2023-08-21T00:57:21;589.30;2432.00
55329;DHT22;41205;44.264;19.884;2023-08-21T00:59:48;589.30;2432.00
55329;DHT22;41205;44.264;19.884;2023-08-21T01:02:14;589.30;2432.00
55329;DHT22;41205;44.264;19.884;2023-08-21T01:04:40;589.30;2432.00
55329;DHT22;41205;44.264;19.884;2023-08-21T01:07:06;589.30;2432.00
55329;DHT22;41205;44.264;19.884;2023-08-21T01:14:59;589.00;2432.00
55329;DHT22;41205;44.264;19.884;2023-08-21T01:17:26;589.00;2432.00
55329;DHT22;41205;44.264;19.884;2023-08-21T01:19:54;589.00;2432.00
55329;DHT22;41205;44.264;19.884;2023-08-21T01:22:24;589.10;2432.00
55329;DHT22;41205;44.264;19.884;2023-08-21T01:24:50;589.10;2432.00
55329;DHT22;41205;44.264;19.884;2023-08-21T01:27:16;589.00;2432.00
55329;DHT22;41205;44.264;19.884;2023-08-21T01:29:42;589.00;2432.00
55329;DHT22;41205;44.264;19.884;2023-08-21T01:34:47;588.90;2432.00
55329;DHT22;41205;44.264;19.884;2023-08-21T01:37:14;589.00;2432.00
55329;DHT22;41205;44.264;19.884;2023-08-21T01:39:40;589.10;2432.00
55329;DHT22;41205;44.264;19.884;2023-08-21T01:42:06;589.00;2432.00
55329;DHT22;41205;44.264;19.884;2023-08-21T01:44:31;589.00;2432.00
55329;DHT22;41205;44.264;19.884;2023-08-21T01:46:57;588.90;2432.00
55329;DHT22;41205;44.264;19.884;2023-08-21T01:49:23;588.90;2432.00
55329;DHT22;41205;44.264;19.884;2023-08-21T01:51:48;588.90;2432.00
55329;DHT22;41205;44.264;19.884;2023-08-21T01:54:14;588.90;2432.00
55329;DHT22;41205;44.264;19.884;2023-08-21T01:56:40;588.90;2432.00
55329;DHT22;41205;44.264;19.884;2023-08-21T01:59:06;588.90;2432.00
55329;DHT22;41205;44.264;19.884;2023-08-21T02:01:34;588.90;2432.00
55329;DHT22;41205;44.264;19.884;2023-08-21T02:04:00;588.90;2432.00
55329;DHT22;41205;44.264;19.884;2023-08-21T02:06:26;588.90;2432.00
55329;DHT22;41205;44.264;19.884;2023-08-21T02:08:51;589.00;2432.00
55329;DHT22;41205;44.264;19.884;2023-08-21T02:11:17;589.00;2432.00
55329;DHT22;41205;44.264;19.884;2023-08-21T02:13:43;589.00;2432.00
55329;DHT22;41205;44.264;19.884;2023-08-21T02:16:09;589.10;2432.00
55329;DHT22;41205;44.264;19.884;2023-08-21T02:18:34;589.20;2432.00
55329;DHT22;41205;44.264;19.884;2023-08-21T02:21:01;589.20;2432.00
55329;DHT22;41205;44.264;19.884;2023-08-21T02:23:27;589.20;2432.00
55329;DHT22;41205;44.264;19.884;2023-08-21T02:25:54;589.20;2432.00
55329;DHT22;41205;44.264;19.884;2023-08-21T02:28:19;589.10;2432.00
55329;DHT22;41205;44.264;19.884;2023-08-21T02:30:45;589.00;2432.00
55329;DHT22;41205;44.264;19.884;2023-08-21T02:33:11;589.00;2432.00
55329;DHT22;41205;44.264;19.884;2023-08-21T02:35:37;588.90;2432.00
55329;DHT22;41205;44.264;19.884;2023-08-21T02:38:03;588.80;2432.00
55329;DHT22;41205;44.264;19.884;2023-08-21T02:40:28;588.90;2432.00
55329;DHT22;41205;44.264;19.884;2023-08-21T02:42:54;588.90;2432.00
55329;DHT22;41205;44.264;19.884;2023-08-21T02:45:20;589.00;2432.00
55329;DHT22;41205;44.264;19.884;2023-08-21T02:47:45;589.00;2432.00
55329;DHT22;41205;44.264;19.884;2023-08-21T02:50:11;589.00;2432.00
55329;DHT22;41205;44.264;19.884;2023-08-21T02:52:37;589.00;2432.00
55329;DHT22;41205;44.264;19.884;2023-08-21T02:55:04;588.90;2432.00
55329;DHT22;41205;44.264;19.884;2023-08-21T02:57:30;588.80;2432.00
55329;DHT22;41205;44.264;19.884;2023-08-21T02:59:56;588.80;2432.00
55329;DHT22;41205;44.264;19.884;2023-08-21T03:02:22;588.80;2432.00
55329;DHT22;41205;44.264;19.884;2023-08-21T03:04:48;564.10;2432.00
55329;DHT22;41205;44.264;19.884;2023-08-21T03:07:15;564.10;2432.00
55329;DHT22;41205;44.264;19.884;2023-08-21T03:09:41;588.80;2432.00
55329;DHT22;41205;44.264;19.884;2023-08-21T03:12:08;588.90;2432.00
55329;DHT22;41205;44.264;19.884;2023-08-21T03:14:34;589.00;2432.00
55329;DHT22;41205;44.264;19.884;2023-08-21T03:17:00;589.10;2432.00
55329;DHT22;41205;44.264;19.884;2023-08-21T03:19:25;589.00;2432.00
55329;DHT22;41205;44.264;19.884;2023-08-21T03:21:51;588.80;2432.00
55329;DHT22;41205;44.264;19.884;2023-08-21T03:24:17;564.10;2432.00
55329;DHT22;41205;44.264;19.884;2023-08-21T03:26:43;564.00;2432.00
55329;DHT22;41205;44.264;19.884;2023-08-21T03:29:09;563.90;2432.00
55329;DHT22;41205;44.264;19.884;2023-08-21T03:31:35;563.80;2432.00
55329;DHT22;41205;44.264;19.884;2023-08-21T03:34:01;563.70;2432.00
55329;DHT22;41205;44.264;19.884;2023-08-21T03:36:27;563.70;2432.00
55329;DHT22;41205;44.264;19.884;2023-08-21T03:38:59;563.60;2432.00
55329;DHT22;41205;44.264;19.884;2023-08-21T03:41:25;563.60;2432.00
55329;DHT22;41205;44.264;19.884;2023-08-21T03:43:51;563.60;2432.00
55329;DHT22;41205;44.264;19.884;2023-08-21T03:46:17;563.60;2432.00
55329;DHT22;41205;44.264;19.884;2023-08-21T03:48:42;563.70;2432.00
55329;DHT22;41205;44.264;19.884;2023-08-21T03:51:08;563.80;2432.00
55329;DHT22;41205;44.264;19.884;2023-08-21T03:53:34;563.90;2432.00
55329;DHT22;41205;44.264;19.884;2023-08-21T03:56:00;564.00;2432.00
55329;DHT22;41205;44.264;19.884;2023-08-21T03:58:25;564.00;2432.00
55329;DHT22;41205;44.264;19.884;2023-08-21T04:00:52;564.00;2432.00
55329;DHT22;41205;44.264;19.884;2023-08-21T04:03:18;564.00;2432.00
55329;DHT22;41205;44.264;19.884;2023-08-21T04:05:44;588.80;2432.00
55329;DHT22;41205;44.264;19.884;2023-08-21T04:08:10;588.80;2432.00
55329;DHT22;41205;44.264;19.884;2023-08-21T04:10:35;588.80;2432.00
55329;DHT22;41205;44.264;19.884;2023-08-21T04:13:02;588.90;2432.00
55329;DHT22;41205;44.264;19.884;2023-08-21T04:15:28;589.00;2432.00
55329;DHT22;41205;44.264;19.884;2023-08-21T04:17:53;589.00;2432.00
55329;DHT22;41205;44.264;19.884;2023-08-21T04:20:22;589.00;2432.00
55329;DHT22;41205;44.264;19.884;2023-08-21T04:22:49;589.20;2432.00
55329;DHT22;41205;44.264;19.884;2023-08-21T04:25:15;589.20;2432.00
55329;DHT22;41205;44.264;19.884;2023-08-21T04:27:41;589.40;2432.00
55329;DHT22;41205;44.264;19.884;2023-08-21T04:30:08;589.50;2432.00
55329;DHT22;41205;44.264;19.884;2023-08-21T04:32:34;589.70;2432.00
55329;DHT22;41205;44.264;19.884;2023-08-21T04:35:00;614.40;2432.00
55329;DHT22;41205;44.264;19.884;2023-08-21T04:37:26;614.50;2432.00
55329;DHT22;41205;44.264;19.884;2023-08-21T04:39:55;614.60;2432.00
55329;DHT22;41205;44.264;19.884;2023-08-21T04:42:21;614.90;2432.00
55329;DHT22;41205;44.264;19.884;2023-08-21T04:44:47;640.20;2432.00
55329;DHT22;41205;44.264;19.884;2023-08-21T04:47:21;640.50;2432.00
55329;DHT22;41205;44.264;19.884;2023-08-21T04:49:48;640.60;2432.00
55329;DHT22;41205;44.264;19.884;2023-08-21T04:52:14;640.90;2432.00
55329;DHT22;41205;44.264;19.884;2023-08-21T04:54:40;665.70;2432.00
55329;DHT22;41205;44.264;19.884;2023-08-21T04:57:05;691.30;2432.00
55329;DHT22;41205;44.264;19.884;2023-08-21T04:59:31;716.80;2432.00
55329;DHT22;41205;44.264;19.884;2023-08-21T05:01:57;717.10;2432.00
55329;DHT22;41205;44.264;19.884;2023-08-21T05:04:22;717.40;2432.00
55329;DHT22;41205;44.264;19.884;2023-08-21T05:06:48;717.20;2432.00
55329;DHT22;41205;44.264;19.884;2023-08-21T05:09:14;716.90;2432.00
55329;DHT22;41205;44.264;19.884;2023-08-21T05:11:40;717.00;2432.00
55329;DHT22;41205;44.264;19.884;2023-08-21T05:14:06;717.00;2432.00
55329;DHT22;41205;44.264;19.884;2023-08-21T05:16:32;717.40;2432.00
55329;DHT22;41205;44.264;19.884;2023-08-21T05:18:57;742.40;2432.00
55329;DHT22;41205;44.264;19.884;2023-08-21T05:21:23;742.50;2432.00
55329;DHT22;41205;44.264;19.884;2023-08-21T05:23:49;743.30;2432.00
55329;DHT22;41205;44.264;19.884;2023-08-21T05:26:15;794.00;2432.00
55329;DHT22;41205;44.264;19.884;2023-08-21T05:28:40;819.30;2355.20
55329;DHT22;41205;44.264;19.884;2023-08-21T05:31:06;845.40;2201.60
55329;DHT22;41205;44.264;19.884;2023-08-21T05:33:32;871.30;1996.80
55329;DHT22;41205;44.264;19.884;2023-08-21T05:35:57;896.70;1920.00
55329;DHT22;41205;44.264;19.884;2023-08-21T05:38:23;896.90;1868.80
55329;DHT22;41205;44.264;19.884;2023-08-21T05:40:49;922.40;1843.20
55329;DHT22;41205;44.264;19.884;2023-08-21T05:43:16;948.00;1740.80
55329;DHT22;41205;44.264;19.884;2023-08-21T05:45:42;973.20;1689.60
55329;DHT22;41205;44.264;19.884;2023-08-21T05:48:08;972.90;1689.60
55329;DHT22;41205;44.264;19.884;2023-08-21T05:50:34;973.60;1638.40
55329;DHT22;41205;44.264;19.884;2023-08-21T05:53:03;998.40;1664.00
55329;DHT22;41205;44.264;19.884;2023-08-21T05:55:29;998.70;1612.80
55329;DHT22;41205;44.264;19.884;2023-08-21T05:57:55;998.80;1612.80
55329;DHT22;41205;44.264;19.884;2023-08-21T06:00:20;999.10;1587.20
55329;DHT22;41205;44.264;19.884;2023-08-21T06:02:46;999.30;1561.60
55329;DHT22;41205;44.264;19.884;2023-08-21T06:05:12;1024.20;1561.60
55329;DHT22;41205;44.264;19.884;2023-08-21T06:07:38;1024.50;1536.00
55329;DHT22;41205;44.264;19.884;2023-08-21T06:10:06;1049.60;1536.00
55329;DHT22;41205;44.264;19.884;2023-08-21T06:12:32;1050.00;1510.40
55329;DHT22;41205;44.264;19.884;2023-08-21T06:14:58;1050.20;1484.80
55329;DHT22;41205;44.264;19.884;2023-08-21T06:17:24;1050.40;1484.80
55329;DHT22;41205;44.264;19.884;2023-08-21T06:19:49;1075.70;1433.60
55329;DHT22;41205;44.264;19.884;2023-08-21T06:22:15;1100.90;1433.60
55329;DHT22;41205;44.264;19.884;2023-08-21T06:24:41;1075.90;1408.00
55329;DHT22;41205;44.264;19.884;2023-08-21T06:27:07;1101.00;1408.00
55329;DHT22;41205;44.264;19.884;2023-08-21T06:29:32;1101.00;1433.60
55329;DHT22;41205;44.264;19.884;2023-08-21T06:31:58;1126.50;1408.00
55329;DHT22;41205;44.264;19.884;2023-08-21T06:34:24;1127.30;1331.20
55329;DHT22;41205;44.264;19.884;2023-08-21T06:36:50;1127.00;1356.80
55329;DHT22;41205;44.264;19.884;2023-08-21T06:39:15;1127.30;1331.20
55329;DHT22;41205;44.264;19.884;2023-08-21T06:41:41;1126.50;1356.80
55329;DHT22;41205;44.264;19.884;2023-08-21T06:44:07;1152.00;1331.20
55329;DHT22;41205;44.264;19.884;2023-08-21T06:46:32;1152.40;1305.60
55329;DHT22;41205;44.264;19.884;2023-08-21T06:48:58;1152.20;1331.20
55329;DHT22;41205;44.264;19.884;2023-08-21T06:51:24;1152.00;1331.20
55329;DHT22;41205;44.264;19.884;2023-08-21T06:53:50;1152.70;1305.60
55329;DHT22;41205;44.264;19.884;2023-08-21T06:56:16;1152.70;1280.00
55329;DHT22;41205;44.264;19.884;2023-08-21T06:58:42;1178.30;1254.40
55329;DHT22;41205;44.264;19.884;2023-08-21T07:01:07;1178.50;1228.80
55329;DHT22;41205;44.264;19.884;2023-08-21T07:03:33;1177.70;1254.40
55329;DHT22;41205;44.264;19.884;2023-08-21T07:06:00;1178.20;1254.40
55329;DHT22;41205;44.264;19.884;2023-08-21T07:08:27;1203.20;1228.80
55329;DHT22;41205;44.264;19.884;2023-08-21T07:10:53;1178.30;1228.80
55329;DHT22;41205;44.264;19.884;2023-08-21T07:13:19;1178.00;1254.40
55329;DHT22;41205;44.264;19.884;2023-08-21T07:15:46;1177.70;1254.40
55329;DHT22;41205;44.264;19.884;2023-08-21T07:18:12;1178.50;1203.20
55329;DHT22;41205;44.264;19.884;2023-08-21T07:20:38;1178.00;1228.80
55329;DHT22;41205;44.264;19.884;2023-08-21T07:23:03;1177.70;1254.40
55329;DHT22;41205;44.264;19.884;2023-08-21T07:25:29;1178.50;1228.80
55329;DHT22;41205;44.264;19.884;2023-08-21T07:27:55;1203.90;1203.20
55329;DHT22;41205;44.264;19.884;2023-08-21T07:30:21;1178.00;1228.80
55329;DHT22;41205;44.264;19.884;2023-08-21T07:32:50;1204.10;1177.60
55329;DHT22;41205;44.264;19.884;2023-08-21T07:35:16;1228.80;1177.60
55329;DHT22;41205;44.264;19.884;2023-08-21T07:37:45;1228.90;1177.60
55329;DHT22;41205;44.264;19.884;2023-08-21T07:40:11;1229.50;1152.00
55329;DHT22;41205;44.264;19.884;2023-08-21T07:42:37;1228.80;1203.20
55329;DHT22;41205;44.264;19.884;2023-08-21T07:45:03;1229.40;1152.00
55329;DHT22;41205;44.264;19.884;2023-08-21T07:47:29;1229.20;1152.00
55329;DHT22;41205;44.264;19.884;2023-08-21T07:49:58;1229.50;1152.00
55329;DHT22;41205;44.264;19.884;2023-08-21T07:52:24;1229.40;1152.00
55329;DHT22;41205;44.264;19.884;2023-08-21T07:54:53;1229.50;1152.00
55329;DHT22;41205;44.264;19.884;2023-08-21T07:57:19;1254.50;1126.40
55329;DHT22;41205;44.264;19.884;2023-08-21T07:59:45;1254.50;1152.00
55329;DHT22;41205;44.264;19.884;2023-08-21T08:02:10;1254.50;1152.00
55329;DHT22;41205;44.264;19.884;2023-08-21T08:04:38;1229.40;1126.40
55329;DHT22;41205;44.264;19.884;2023-08-21T08:07:04;1203.90;1177.60
55329;DHT22;41205;44.264;19.884;2023-08-21T08:09:30;1203.90;1152.00
55329;DHT22;41205;44.264;19.884;2023-08-21T08:11:56;1228.80;1177.60
55329;DHT22;41205;44.264;19.884;2023-08-21T08:14:21;1229.40;1152.00
55329;DHT22;41205;44.264;19.884;2023-08-21T08:16:47;1254.40;1152.00
55329;DHT22;41205;44.264;19.884;2023-08-21T08:19:13;1229.40;1152.00
55329;DHT22;41205;44.264;19.884;2023-08-21T08:21:39;1229.50;1126.40
55329;DHT22;41205;44.264;19.884;2023-08-21T08:24:04;1254.50;1126.40
55329;DHT22;41205;44.264;19.884;2023-08-21T08:26:30;1254.50;1126.40
55329;DHT22;41205;44.264;19.884;2023-08-21T08:28:56;1254.60;1126.40
55329;DHT22;41205;44.264;19.884;2023-08-21T08:31:22;1229.50;1126.40
55329;DHT22;41205;44.264;19.884;2023-08-21T08:33:49;1229.50;1126.40
55329;DHT22;41205;44.264;19.884;2023-08-21T08:36:15;1228.90;1152.00
55329;DHT22;41205;44.264;19.884;2023-08-21T08:38:41;1203.90;1152.00
55329;DHT22;41205;44.264;19.884;2023-08-21T08:41:11;1203.30;1152.00
55329;DHT22;41205;44.264;19.884;2023-08-21T08:43:40;1152.20;1203.20
55329;DHT22;41205;44.264;19.884;2023-08-21T08:46:08;1100.80;1305.60
55329;DHT22;41205;44.264;19.884;2023-08-21T08:48:35;1075.20;1331.20
55329;DHT22;41205;44.264;19.884;2023-08-21T08:51:02;1024.20;1408.00
55329;DHT22;41205;44.264;19.884;2023-08-21T08:53:31;999.30;1433.60
55329;DHT22;41205;44.264;19.884;2023-08-21T08:55:58;998.60;1459.20
55329;DHT22;41205;44.264;19.884;2023-08-21T08:58:24;998.60;1433.60
55329;DHT22;41205;44.264;19.884;2023-08-21T09:00:50;973.50;1433.60
55329;DHT22;41205;44.264;19.884;2023-08-21T09:03:15;973.20;1484.80
55329;DHT22;41205;44.264;19.884;2023-08-21T09:05:42;948.10;1484.80
55329;DHT22;41205;44.264;19.884;2023-08-21T09:08:12;972.80;1510.40
55329;DHT22;41205;44.264;19.884;2023-08-21T09:10:39;973.10;1510.40
55329;DHT22;41205;44.264;19.884;2023-08-21T09:13:16;973.10;1484.80
55329;DHT22;41205;44.264;19.884;2023-08-21T09:15:46;973.10;1484.80
55329;DHT22;41205;44.264;19.884;2023-08-21T09:18:13;972.80;1510.40
55329;DHT22;41205;44.264;19.884;2023-08-21T09:20:41;947.90;1510.40
55329;DHT22;41205;44.264;19.884;2023-08-21T09:23:07;948.00;1561.60
55329;DHT22;41205;44.264;19.884;2023-08-21T09:25:38;948.10;1536.00
55329;DHT22;41205;44.264;19.884;2023-08-21T09:28:05;947.50;1536.00
55329;DHT22;41205;44.264;19.884;2023-08-21T09:30:47;948.00;1561.60
55329;DHT22;41205;44.264;19.884;2023-08-21T09:33:13;947.80;1510.40
55329;DHT22;41205;44.264;19.884;2023-08-21T09:35:39;948.10;1510.40
55329;DHT22;41205;44.264;19.884;2023-08-21T09:38:08;947.70;1561.60
55329;DHT22;41205;44.264;19.884;2023-08-21T09:40:35;948.10;1561.60
55329;DHT22;41205;44.264;19.884;2023-08-21T09:43:04;947.80;1561.60
55329;DHT22;41205;44.264;19.884;2023-08-21T09:45:30;947.70;1536.00
55329;DHT22;41205;44.264;19.884;2023-08-21T09:47:57;947.30;1561.60
55329;DHT22;41205;44.264;19.884;2023-08-21T09:50:24;947.70;1587.20
55329;DHT22;41205;44.264;19.884;2023-08-21T09:52:51;947.80;1536.00
55329;DHT22;41205;44.264;19.884;2023-08-21T09:55:18;947.70;1587.20
55329;DHT22;41205;44.264;19.884;2023-08-21T09:57:44;948.10;1536.00
55329;DHT22;41205;44.264;19.884;2023-08-21T10:00:11;947.60;1612.80
55329;DHT22;41205;44.264;19.884;2023-08-21T10:02:50;922.50;1612.80
55329;DHT22;41205;44.264;19.884;2023-08-21T10:05:17;922.30;1612.80
55329;DHT22;41205;44.264;19.884;2023-08-21T10:07:48;922.10;1638.40
55329;DHT22;41205;44.264;19.884;2023-08-21T10:10:14;922.00;1638.40
55329;DHT22;41205;44.264;19.884;2023-08-21T10:12:40;922.00;1664.00
55329;DHT22;41205;44.264;19.884;2023-08-21T10:15:07;922.10;1638.40
55329;DHT22;41205;44.264;19.884;2023-08-21T10:17:37;922.30;1638.40
55329;DHT22;41205;44.264;19.884;2023-08-21T10:20:07;921.80;1587.20
55329;DHT22;41205;44.264;19.884;2023-08-21T10:22:45;896.30;1587.20
55329;DHT22;41205;44.264;19.884;2023-08-21T10:25:22;871.30;1612.80
55329;DHT22;41205;44.264;19.884;2023-08-21T10:27:53;896.00;1638.40
55329;DHT22;41205;44.264;19.884;2023-08-21T10:30:27;896.40;1612.80
55329;DHT22;41205;44.264;19.884;2023-08-21T10:32:54;871.30;1587.20
55329;DHT22;41205;44.264;19.884;2023-08-21T10:35:22;896.30;1587.20
55329;DHT22;41205;44.264;19.884;2023-08-21T10:40:36;896.10;1587.20
55329;DHT22;41205;44.264;19.884;2023-08-21T10:43:03;871.20;1612.80
55329;DHT22;41205;44.264;19.884;2023-08-21T10:45:29;870.80;1664.00
55329;DHT22;41205;44.264;19.884;2023-08-21T10:47:59;871.10;1638.40
55329;DHT22;41205;44.264;19.884;2023-08-21T10:50:26;870.90;1638.40
55329;DHT22;41205;44.264;19.884;2023-08-21T10:52:53;871.20;1612.80
55329;DHT22;41205;44.264;19.884;2023-08-21T10:55:19;871.10;1612.80
55329;DHT22;41205;44.264;19.884;2023-08-21T10:57:49;871.10;1587.20
55329;DHT22;41205;44.264;19.884;2023-08-21T11:00:17;871.10;1638.40
55329;DHT22;41205;44.264;19.884;2023-08-21T11:02:48;871.20;1612.80
55329;DHT22;41205;44.264;19.884;2023-08-21T11:05:15;871.10;1612.80
55329;DHT22;41205;44.264;19.884;2023-08-21T11:07:45;871.10;1612.80
55329;DHT22;41205;44.264;19.884;2023-08-21T11:10:16;870.90;1612.80
55329;DHT22;41205;44.264;19.884;2023-08-21T11:12:49;871.30;1612.80
55329;DHT22;41205;44.264;19.884;2023-08-21T11:15:16;871.30;1561.60
55329;DHT22;41205;44.264;19.884;2023-08-21T11:17:42;896.20;1561.60
55329;DHT22;41205;44.264;19.884;2023-08-21T11:20:08;896.40;1587.20
55329;DHT22;41205;44.264;19.884;2023-08-21T11:22:34;896.20;1561.60
55329;DHT22;41205;44.264;19.884;2023-08-21T11:24:59;896.10;1587.20
55329;DHT22;41205;44.264;19.884;2023-08-21T11:27:25;896.00;1587.20
55329;DHT22;41205;44.264;19.884;2023-08-21T11:29:52;871.20;1612.80
55329;DHT22;41205;44.264;19.884;2023-08-21T11:32:22;871.30;1587.20
55329;DHT22;41205;44.264;19.884;2023-08-21T11:34:51;871.10;1612.80
55329;DHT22;41205;44.264;19.884;2023-08-21T11:37:18;870.70;1638.40
55329;DHT22;41205;44.264;19.884;2023-08-21T11:39:51;870.90;1638.40
55329;DHT22;41205;44.264;19.884;2023-08-21T11:42:17;896.00;1664.00
55329;DHT22;41205;44.264;19.884;2023-08-21T11:44:51;896.20;1587.20
55329;DHT22;41205;44.264;19.884;2023-08-21T11:47:19;896.00;1561.60
55329;DHT22;41205;44.264;19.884;2023-08-21T11:49:46;896.00;1587.20
55329;DHT22;41205;44.264;19.884;2023-08-21T11:52:19;896.00;1587.20
55329;DHT22;41205;44.264;19.884;2023-08-21T11:54:48;871.20;1612.80
55329;DHT22;41205;44.264;19.884;2023-08-21T11:57:14;871.10;1638.40
55329;DHT22;41205;44.264;19.884;2023-08-21T11:59:41;871.10;1638.40
55329;DHT22;41205;44.264;19.884;2023-08-21T12:02:14;870.90;1638.40
55329;DHT22;41205;44.264;19.884;2023-08-21T12:04:41;870.50;1664.00
55329;DHT22;41205;44.264;19.884;2023-08-21T12:07:07;870.90;1664.00
55329;DHT22;41205;44.264;19.884;2023-08-21T12:09:33;870.90;1612.80
55329;DHT22;41205;44.264;19.884;2023-08-21T12:11:59;871.10;1638.40
55329;DHT22;41205;44.264;19.884;2023-08-21T12:14:25;896.00;1638.40
55329;DHT22;41205;44.264;19.884;2023-08-21T12:16:51;896.20;1612.80
55329;DHT22;41205;44.264;19.884;2023-08-21T12:19:17;871.10;1612.80
55329;DHT22;41205;44.264;19.884;2023-08-21T12:21:43;871.20;1612.80
55329;DHT22;41205;44.264;19.884;2023-08-21T12:24:09;871.10;1638.40
55329;DHT22;41205;44.264;19.884;2023-08-21T12:26:34;896.20;1638.40
55329;DHT22;41205;44.264;19.884;2023-08-21T12:29:00;871.10;1612.80
55329;DHT22;41205;44.264;19.884;2023-08-21T12:31:27;870.90;1612.80
55329;DHT22;41205;44.264;19.884;2023-08-21T12:33:53;870.80;1638.40
55329;DHT22;41205;44.264;19.884;2023-08-21T12:36:19;870.90;1638.40
55329;DHT22;41205;44.264;19.884;2023-08-21T12:38:45;871.10;1612.80
55329;DHT22;41205;44.264;19.884;2023-08-21T12:41:10;871.10;1561.60
55329;DHT22;41205;44.264;19.884;2023-08-21T12:43:36;870.80;1612.80
55329;DHT22;41205;44.264;19.884;2023-08-21T12:46:02;870.70;1638.40
55329;DHT22;41205;44.264;19.884;2023-08-21T12:48:28;870.90;1612.80
55329;DHT22;41205;44.264;19.884;2023-08-21T12:50:53;870.60;1612.80
55329;DHT22;41205;44.264;19.884;2023-08-21T12:53:19;871.10;1638.40
55329;DHT22;41205;44.264;19.884;2023-08-21T12:55:45;871.10;1587.20
55329;DHT22;41205;44.264;19.884;2023-08-21T12:58:11;896.00;1612.80
55329;DHT22;41205;44.264;19.884;2023-08-21T13:00:39;896.10;1587.20
55329;DHT22;41205;44.264;19.884;2023-08-21T13:03:05;871.30;1612.80
55329;DHT22;41205;44.264;19.884;2023-08-21T13:05:31;871.20;1587.20
55329;DHT22;41205;44.264;19.884;2023-08-21T13:07:56;871.10;1612.80
55329;DHT22;41205;44.264;19.884;2023-08-21T13:10:22;871.30;1587.20
55329;DHT22;41205;44.264;19.884;2023-08-21T13:12:48;871.10;1612.80
55329;DHT22;41205;44.264;19.884;2023-08-21T13:15:15;870.80;1612.80
55329;DHT22;41205;44.264;19.884;2023-08-21T13:17:41;870.70;1638.40
55329;DHT22;41205;44.264;19.884;2023-08-21T13:20:09;870.80;1612.80
55329;DHT22;41205;44.264;19.884;2023-08-21T13:22:52;871.00;1638.40
55329;DHT22;41205;44.264;19.884;2023-08-21T13:25:24;871.30;1612.80
55329;DHT22;41205;44.264;19.884;2023-08-21T13:27:51;871.00;1587.20
55329;DHT22;41205;44.264;19.884;2023-08-21T13:30:17;870.90;1612.80
55329;DHT22;41205;44.264;19.884;2023-08-21T13:32:43;870.90;1561.60
55329;DHT22;41205;44.264;19.884;2023-08-21T13:35:09;870.90;1587.20
55329;DHT22;41205;44.264;19.884;2023-08-21T13:37:36;871.20;1612.80
55329;DHT22;41205;44.264;19.884;2023-08-21T13:40:03;871.10;1587.20
55329;DHT22;41205;44.264;19.884;2023-08-21T13:42:39;871.20;1561.60
55329;DHT22;41205;44.264;19.884;2023-08-21T13:45:09;871.10;1536.00
55329;DHT22;41205;44.264;19.884;2023-08-21T13:47:42;871.10;1536.00
55329;DHT22;41205;44.264;19.884;2023-08-21T13:50:09;871.10;1536.00
55329;DHT22;41205;44.264;19.884;2023-08-21T13:52:35;871.00;1561.60
55329;DHT22;41205;44.264;19.884;2023-08-21T13:55:02;871.10;1561.60
55329;DHT22;41205;44.264;19.884;2023-08-21T13:57:28;870.90;1561.60
55329;DHT22;41205;44.264;19.884;2023-08-21T13:59:54;871.10;1561.60
55329;DHT22;41205;44.264;19.884;2023-08-21T14:02:20;871.00;1587.20
55329;DHT22;41205;44.264;19.884;2023-08-21T14:04:46;871.00;1587.20
55329;DHT22;41205;44.264;19.884;2023-08-21T14:07:12;870.60;1587.20
55329;DHT22;41205;44.264;19.884;2023-08-21T14:09:39;870.70;1587.20
55329;DHT22;41205;44.264;19.884;2023-08-21T14:12:05;870.50;1587.20
55329;DHT22;41205;44.264;19.884;2023-08-21T14:14:33;870.60;1612.80
55329;DHT22;41205;44.264;19.884;2023-08-21T14:16:58;870.50;1612.80
55329;DHT22;41205;44.264;19.884;2023-08-21T14:19:24;870.50;1612.80
55329;DHT22;41205;44.264;19.884;2023-08-21T14:21:50;870.70;1638.40
55329;DHT22;41205;44.264;19.884;2023-08-21T14:24:16;870.90;1612.80
55329;DHT22;41205;44.264;19.884;2023-08-21T14:26:42;871.20;1612.80
55329;DHT22;41205;44.264;19.884;2023-08-21T14:29:08;871.20;1587.20
55329;DHT22;41205;44.264;19.884;2023-08-21T14:31:34;871.00;1587.20
55329;DHT22;41205;44.264;19.884;2023-08-21T14:34:00;871.10;1612.80
55329;DHT22;41205;44.264;19.884;2023-08-21T14:36:25;871.10;1561.60
55329;DHT22;41205;44.264;19.884;2023-08-21T14:38:51;871.00;1587.20
55329;DHT22;41205;44.264;19.884;2023-08-21T14:41:17;871.00;1587.20